createdAt,value
2022-08-02T00:01:20.301Z,35.71
2022-08-02T00:03:47.481Z,35.48
2022-08-02T00:06:14.656Z,35.95
2022-08-02T00:08:41.824Z,36.01
2022-08-02T00:11:09.005Z,35.60
2022-08-02T00:13:39.486Z,35.96
2022-08-02T00:16:09.377Z,35.85
2022-08-02T00:18:36.556Z,35.89
2022-08-02T00:21:03.868Z,35.78
2022-08-02T00:23:31.121Z,35.57
2022-08-02T00:25:58.930Z,36.16
2022-08-02T00:28:27.733Z,36.09
2022-08-02T00:30:57.579Z,36.18
2022-08-02T00:34:26.390Z,36.52
2022-08-02T00:36:12.104Z,36.80
2022-08-02T00:38:39.280Z,36.72
2022-08-02T00:41:11.600Z,37.44
2022-08-02T00:43:39.072Z,37.65
2022-08-02T00:46:06.338Z,37.62
2022-08-02T00:48:33.613Z,38.11
2022-08-02T00:51:01.974Z,38.45
2022-08-02T00:53:29.229Z,38.42
2022-08-02T00:56:14.846Z,39.12
2022-08-02T00:58:42.106Z,39.43
2022-08-02T01:01:09.632Z,40.58
2022-08-02T01:03:36.886Z,41.17
2022-08-02T01:06:11.641Z,41.98
2022-08-02T01:08:40.073Z,42.03
2022-08-02T01:11:07.474Z,42.07
2022-08-02T01:13:34.747Z,42.34
2022-08-02T01:16:04.185Z,42.16
2022-08-02T01:18:35.847Z,42.19
2022-08-02T01:21:14.228Z,42.51
2022-08-02T01:23:44.167Z,42.33
2022-08-02T01:26:17.259Z,42.30
2022-08-02T01:28:50.736Z,42.34
2022-08-02T01:31:26.186Z,42.19
2022-08-02T01:34:03.099Z,42.23
2022-08-02T01:36:32.799Z,42.04
2022-08-02T01:39:01.864Z,41.83
2022-08-02T01:41:29.706Z,42.33
2022-08-02T01:43:59.473Z,42.31
2022-08-02T01:46:27.683Z,42.44
2022-08-02T01:48:56.443Z,41.97
2022-08-02T01:51:44.937Z,41.84
2022-08-02T01:54:14.459Z,41.80
2022-08-02T01:56:43.151Z,41.78
2022-08-02T01:59:12.989Z,41.79
2022-08-02T02:01:41.782Z,41.90
2022-08-02T02:04:09.901Z,42.28
2022-08-02T02:06:37.736Z,42.18
2022-08-02T02:09:05.364Z,41.83
2022-08-02T02:12:06.569Z,41.63
2022-08-02T02:14:21.831Z,41.94
2022-08-02T02:16:49.368Z,41.93
2022-08-02T02:19:20.906Z,42.26
2022-08-02T02:21:48.678Z,42.41
2022-08-02T02:24:15.985Z,42.89
2022-08-02T02:26:52.126Z,43.48
2022-08-02T02:29:25.423Z,44.22
2022-08-02T02:31:53.514Z,44.70
2022-08-02T02:34:26.534Z,45.10
2022-08-02T02:36:54.736Z,45.77
2022-08-02T02:39:22.897Z,46.65
2022-08-02T02:41:51.499Z,47.06
2022-08-02T02:44:20.064Z,47.48
2022-08-02T02:46:49.669Z,47.50
2022-08-02T02:49:18.117Z,47.67
2022-08-02T02:51:46.045Z,47.94
2022-08-02T02:54:30.089Z,47.73
2022-08-02T02:57:02.685Z,48.35
2022-08-02T02:59:30.317Z,48.45
2022-08-02T03:01:58.813Z,48.87
2022-08-02T03:04:36.047Z,49.24
2022-08-02T03:07:15.708Z,49.62
2022-08-02T03:09:43.093Z,49.90
2022-08-02T03:12:11.109Z,50.13
2022-08-02T03:14:44.897Z,49.67
2022-08-02T03:17:16.753Z,49.97
2022-08-02T03:19:44.781Z,49.69
2022-08-02T03:22:12.278Z,49.71
2022-08-02T03:24:39.707Z,49.34
2022-08-02T03:27:07.182Z,49.45
2022-08-02T03:29:34.871Z,49.27
2022-08-02T03:32:02.328Z,49.02
2022-08-02T03:34:29.704Z,48.92
2022-08-02T03:36:58.214Z,48.58
2022-08-02T03:39:25.958Z,48.10
2022-08-02T03:41:54.866Z,48.01
2022-08-02T03:44:22.933Z,47.84
2022-08-02T03:46:51.169Z,47.55
2022-08-02T03:49:19.036Z,47.32
2022-08-02T03:51:47.233Z,47.79
2022-08-02T03:54:15.048Z,47.39
2022-08-02T03:56:42.410Z,47.07
2022-08-02T03:59:13.764Z,46.96
2022-08-02T04:01:41.334Z,46.72
2022-08-02T04:04:09.040Z,46.76
2022-08-02T04:06:39.868Z,47.00
2022-08-02T04:09:07.233Z,47.12
2022-08-02T04:11:34.592Z,47.84
2022-08-02T04:14:36.362Z,48.09
2022-08-02T04:17:08.413Z,47.39
2022-08-02T04:19:40.723Z,47.44
2022-08-02T04:22:13.301Z,47.78
2022-08-02T04:25:01.358Z,47.32
2022-08-02T04:28:15.461Z,47.59
2022-08-02T04:30:17.189Z,47.50
2022-08-02T04:32:44.833Z,47.58
2022-08-02T04:35:20.371Z,47.82
2022-08-02T04:38:05.671Z,47.86
2022-08-02T04:40:36.107Z,47.93
2022-08-02T04:43:03.376Z,47.65
2022-08-02T04:45:30.630Z,47.51
2022-08-02T04:48:06.126Z,48.11
2022-08-02T04:50:34.563Z,48.90
2022-08-02T04:53:01.972Z,49.08
2022-08-02T04:55:29.980Z,49.01
2022-08-02T04:57:58.580Z,48.57
2022-08-02T05:00:27.157Z,48.50
2022-08-02T05:02:55.802Z,49.28
2022-08-02T05:05:23.075Z,49.61
2022-08-02T05:07:50.302Z,50.28
2022-08-02T05:10:17.515Z,50.36
2022-08-02T05:12:44.746Z,50.55
2022-08-02T05:15:13.168Z,50.53
2022-08-02T05:17:47.404Z,50.45
2022-08-02T05:20:18.565Z,50.55
2022-08-02T05:22:45.792Z,50.06
2022-08-02T05:25:13.038Z,50.35
2022-08-02T05:27:40.578Z,51.30
2022-08-02T05:30:08.294Z,52.67
2022-08-02T05:32:35.865Z,52.62
2022-08-02T05:35:03.351Z,53.13
2022-08-02T05:37:32.127Z,53.40
2022-08-02T05:40:01.162Z,53.49
2022-08-02T05:42:31.943Z,54.32
2022-08-02T05:44:59.587Z,54.68
2022-08-02T05:47:26.882Z,55.05
2022-08-02T05:49:54.077Z,55.98
2022-08-02T05:52:24.248Z,58.76
2022-08-02T05:54:57.368Z,61.96
2022-08-02T05:57:41.881Z,65.23
2022-08-02T06:00:13.375Z,66.37
2022-08-02T06:02:43.345Z,69.27
2022-08-02T06:05:12.453Z,69.40
2022-08-02T06:07:42.007Z,71.68
2022-08-02T06:10:10.021Z,74.29
2022-08-02T06:12:41.450Z,75.42
2022-08-02T06:15:08.817Z,72.56
2022-08-02T06:17:41.942Z,74.11
2022-08-02T06:20:13.389Z,74.57
2022-08-02T06:22:44.947Z,73.14
2022-08-02T06:25:49.862Z,71.26
2022-08-02T06:28:01.251Z,69.99
2022-08-02T06:30:28.900Z,67.88
2022-08-02T06:32:56.314Z,69.32
2022-08-02T06:35:25.780Z,71.12
2022-08-02T06:37:58.883Z,69.58
2022-08-02T06:40:29.374Z,69.34
2022-08-02T06:42:56.576Z,68.56
2022-08-02T06:45:23.823Z,70.30
2022-08-02T06:47:50.981Z,75.26
2022-08-02T06:50:18.197Z,65.16
2022-08-02T06:52:45.696Z,70.31
2022-08-02T06:55:12.972Z,70.44
2022-08-02T06:57:40.105Z,72.10
2022-08-02T07:00:09.599Z,72.77
2022-08-02T07:02:37.302Z,73.09
2022-08-02T07:05:04.827Z,75.29
2022-08-02T07:07:32.273Z,68.44
2022-08-02T07:10:01.676Z,70.87
2022-08-02T07:12:31.755Z,71.12
2022-08-02T07:15:03.532Z,70.78
2022-08-02T07:17:31.260Z,74.17
2022-08-02T07:19:58.822Z,76.14
2022-08-02T07:22:27.533Z,77.24
2022-08-02T07:24:56.400Z,77.65
2022-08-02T07:27:23.843Z,80.12
2022-08-02T07:29:51.138Z,79.33
2022-08-02T07:32:19.346Z,82.77
2022-08-02T07:34:52.668Z,84.98
2022-08-02T07:37:35.657Z,86.00
2022-08-02T07:40:14.147Z,84.67
2022-08-02T07:42:43.362Z,85.32
2022-08-02T07:45:11.312Z,84.49
2022-08-02T07:47:39.118Z,86.32
2022-08-02T07:50:06.668Z,86.56
2022-08-02T07:52:33.929Z,86.38
2022-08-02T07:55:01.269Z,86.22
2022-08-02T07:57:28.529Z,86.54
2022-08-02T07:59:55.679Z,86.75
2022-08-02T08:02:24.779Z,84.27
2022-08-02T08:04:52.562Z,82.37
2022-08-02T08:07:20.343Z,79.81
2022-08-02T08:09:50.769Z,83.35
2022-08-02T08:12:21.296Z,83.35
2022-08-02T08:14:48.472Z,79.55
2022-08-02T08:17:15.688Z,82.01
2022-08-02T08:19:51.919Z,81.94
2022-08-02T08:22:22.864Z,77.23
2022-08-02T08:24:50.519Z,74.48
2022-08-02T08:27:18.531Z,75.95
2022-08-02T08:29:46.222Z,72.49
2022-08-02T08:32:17.454Z,70.71
2022-08-02T08:34:45.971Z,69.60
2022-08-02T08:37:18.156Z,70.66
2022-08-02T08:39:58.021Z,68.37
2022-08-02T08:42:30.915Z,69.77
2022-08-02T08:44:58.809Z,68.20
2022-08-02T08:47:34.386Z,68.87
2022-08-02T08:50:03.188Z,70.10
2022-08-02T08:52:32.556Z,68.57
2022-08-02T08:54:59.865Z,66.10
2022-08-02T08:57:29.631Z,63.50
2022-08-02T08:59:56.987Z,64.28
2022-08-02T09:02:28.095Z,61.59
2022-08-02T09:04:55.922Z,61.71
2022-08-02T09:07:23.717Z,59.49
2022-08-02T09:09:50.903Z,58.53
2022-08-02T09:12:19.623Z,58.24
2022-08-02T09:14:50.134Z,60.73
2022-08-02T09:17:18.129Z,61.22
2022-08-02T09:19:46.290Z,58.39
2022-08-02T09:22:15.496Z,58.00
2022-08-02T09:24:43.770Z,57.76
2022-08-02T09:27:12.037Z,53.14
2022-08-02T09:30:06.004Z,52.73
2022-08-02T09:32:29.679Z,52.08
2022-08-02T09:34:56.845Z,50.86
2022-08-02T09:37:27.885Z,53.21
2022-08-02T09:39:57.218Z,53.24
2022-08-02T09:42:30.750Z,51.67
2022-08-02T09:45:00.462Z,50.69
2022-08-02T09:47:28.798Z,49.18
2022-08-02T09:49:58.564Z,48.52
2022-08-02T09:52:37.459Z,48.59
2022-08-02T09:55:11.439Z,49.60
2022-08-02T09:57:38.957Z,50.32
2022-08-02T10:00:07.809Z,50.00
2022-08-02T10:03:02.238Z,49.95
2022-08-02T10:05:34.675Z,49.26
2022-08-02T10:08:09.359Z,50.30
2022-08-02T10:10:36.668Z,48.10
2022-08-02T10:13:04.959Z,49.56
2022-08-02T10:15:32.243Z,48.87
2022-08-02T10:17:59.471Z,48.94
2022-08-02T10:20:26.703Z,47.48
2022-08-02T10:22:54.888Z,47.22
2022-08-02T10:25:22.182Z,46.88
2022-08-02T10:28:04.856Z,46.65
2022-08-02T10:30:34.621Z,48.49
2022-08-02T10:33:03.276Z,47.96
2022-08-02T10:35:32.846Z,46.58
2022-08-02T10:38:07.788Z,48.50
2022-08-02T10:40:44.435Z,46.95
2022-08-02T10:43:11.813Z,47.62
2022-08-02T10:45:39.547Z,47.23
2022-08-02T10:48:11.768Z,47.61
2022-08-02T10:50:59.241Z,46.89
2022-08-02T10:53:32.087Z,45.72
2022-08-02T10:56:04.664Z,46.11
2022-08-02T10:58:32.920Z,46.13
2022-08-02T11:01:04.544Z,46.47
2022-08-02T11:03:32.893Z,45.39
2022-08-02T11:06:25.620Z,45.97
2022-08-02T11:09:12.400Z,46.75
2022-08-02T11:11:59.488Z,45.93
2022-08-02T11:14:26.826Z,45.93
2022-08-02T11:16:57.068Z,45.66
2022-08-02T11:19:25.257Z,45.46
2022-08-02T11:22:05.880Z,44.70
2022-08-02T11:24:33.965Z,45.11
2022-08-02T11:27:05.407Z,44.54
2022-08-02T11:29:38.372Z,45.56
2022-08-02T11:32:15.390Z,43.43
2022-08-02T11:34:43.428Z,43.45
2022-08-02T11:37:11.280Z,44.40
2022-08-02T11:39:38.457Z,44.22
2022-08-02T11:42:05.831Z,43.52
2022-08-02T11:44:39.992Z,43.05
2022-08-02T11:47:08.366Z,42.86
2022-08-02T11:49:37.058Z,42.22
2022-08-02T11:52:05.581Z,42.45
2022-08-02T11:54:35.308Z,42.16
2022-08-02T11:57:18.982Z,42.38
2022-08-02T11:59:51.547Z,42.37
2022-08-02T12:02:22.555Z,42.30
2022-08-02T12:04:58.882Z,41.90
2022-08-02T12:07:30.394Z,41.97
2022-08-02T12:10:07.304Z,41.46
2022-08-02T12:12:47.032Z,41.47
2022-08-02T12:15:17.345Z,41.18
2022-08-02T12:18:05.372Z,41.65
2022-08-02T12:20:37.069Z,41.85
2022-08-02T12:23:04.497Z,41.76
2022-08-02T12:25:34.525Z,41.85
2022-08-02T12:28:18.154Z,42.63
2022-08-02T12:31:03.484Z,40.57
2022-08-02T12:33:46.765Z,41.11
2022-08-02T12:36:18.128Z,41.21
2022-08-02T12:38:55.635Z,40.54
2022-08-02T12:41:31.114Z,39.69
2022-08-02T12:44:00.133Z,38.45
2022-08-02T12:46:27.564Z,37.38
2022-08-02T12:49:16.475Z,37.67
2022-08-02T12:51:50.896Z,38.37
2022-08-02T12:54:31.213Z,38.37
2022-08-02T12:57:19.498Z,37.91
2022-08-02T12:59:53.714Z,37.18
2022-08-02T13:02:21.612Z,35.63
2022-08-02T13:04:50.635Z,33.91
2022-08-02T13:07:18.919Z,35.17
2022-08-02T13:09:48.312Z,35.62
2022-08-02T13:12:16.174Z,34.83
2022-08-02T13:14:43.741Z,31.05
2022-08-02T13:17:11.648Z,32.32
2022-08-02T13:19:39.263Z,31.08
2022-08-02T13:22:08.413Z,30.74
2022-08-02T13:24:41.158Z,32.32
2022-08-02T13:27:23.835Z,33.59
2022-08-02T13:29:51.309Z,33.63
2022-08-02T13:32:18.724Z,33.37
2022-08-02T13:34:46.208Z,33.51
2022-08-02T13:37:13.463Z,33.15
2022-08-02T13:39:40.778Z,32.87
2022-08-02T13:42:16.686Z,32.69
2022-08-02T13:44:44.426Z,32.49
2022-08-02T13:47:11.644Z,32.57
2022-08-02T13:49:51.499Z,32.81
2022-08-02T13:52:19.318Z,32.84
2022-08-02T13:54:46.513Z,33.09
2022-08-02T13:57:13.659Z,32.99
2022-08-02T13:59:57.971Z,32.74
2022-08-02T14:02:28.077Z,33.30
2022-08-02T14:04:55.703Z,32.79
2022-08-02T14:07:22.947Z,33.51
2022-08-02T14:09:50.107Z,33.99
2022-08-02T14:12:17.597Z,33.96
2022-08-02T14:14:45.033Z,34.46
2022-08-02T14:17:13.612Z,34.03
2022-08-02T14:19:40.801Z,34.00
2022-08-02T14:22:21.268Z,34.08
2022-08-02T14:24:48.653Z,33.72
2022-08-02T14:27:15.967Z,33.12
2022-08-02T14:29:43.251Z,33.67
2022-08-02T14:32:10.824Z,34.13
2022-08-02T14:34:38.333Z,33.37
2022-08-02T14:37:05.575Z,33.81
2022-08-02T14:39:43.588Z,33.92
2022-08-02T14:42:19.893Z,34.48
2022-08-02T14:44:47.049Z,33.83
2022-08-02T14:47:14.464Z,34.15
2022-08-02T14:49:44.995Z,34.08
2022-08-02T14:52:14.907Z,33.51
2022-08-02T14:54:43.207Z,33.17
2022-08-02T14:57:10.661Z,33.40
2022-08-02T14:59:42.539Z,33.68
2022-08-02T15:02:10.829Z,33.45
2022-08-02T15:04:42.822Z,33.03
2022-08-02T15:07:11.467Z,33.32
2022-08-02T15:09:39.463Z,33.59
2022-08-02T15:12:08.181Z,33.29
2022-08-02T15:14:35.364Z,33.49
2022-08-02T15:17:02.821Z,33.49
2022-08-02T15:19:57.324Z,34.05
2022-08-02T15:22:19.367Z,33.71
2022-08-02T15:24:47.400Z,33.60
2022-08-02T15:27:15.173Z,33.25
2022-08-02T15:29:43.700Z,33.94
2022-08-02T15:32:11.472Z,33.23
2022-08-02T15:34:39.204Z,33.57
2022-08-02T15:37:06.429Z,33.74
2022-08-02T15:39:33.610Z,33.35
2022-08-02T15:42:00.807Z,33.04
2022-08-02T15:44:28.386Z,33.25
2022-08-02T15:46:55.817Z,33.31
2022-08-02T15:49:23.862Z,33.43
2022-08-02T15:51:52.152Z,33.42
2022-08-02T15:54:19.969Z,33.49
2022-08-02T15:56:47.268Z,33.72
2022-08-02T15:59:15.313Z,33.54
2022-08-02T16:01:47.181Z,33.29
2022-08-02T16:04:15.614Z,33.56
2022-08-02T16:06:43.333Z,33.23
2022-08-02T16:09:10.517Z,33.36
2022-08-02T16:11:37.972Z,33.27
2022-08-02T16:14:05.529Z,33.62
2022-08-02T16:16:34.349Z,33.89
2022-08-02T16:19:46.693Z,33.22
2022-08-02T16:21:50.602Z,33.09
2022-08-02T16:24:17.867Z,33.55
2022-08-02T16:26:45.121Z,34.31
2022-08-02T16:29:12.363Z,34.71
2022-08-02T16:31:42.575Z,34.56
2022-08-02T16:34:10.303Z,34.21
2022-08-02T16:36:37.882Z,34.50
2022-08-02T16:39:05.384Z,34.84
2022-08-02T16:41:45.438Z,34.71
2022-08-02T16:44:27.659Z,34.66
2022-08-02T16:47:00.549Z,34.71
2022-08-02T16:50:05.180Z,35.26
2022-08-02T16:52:19.065Z,35.24
2022-08-02T16:54:49.446Z,34.73
2022-08-02T16:57:20.032Z,34.62
2022-08-02T16:59:58.088Z,34.81
2022-08-02T17:02:26.363Z,35.10
2022-08-02T17:04:53.624Z,35.16
2022-08-02T17:08:15.238Z,35.32
2022-08-02T17:10:09.546Z,35.16
2022-08-02T17:12:37.691Z,34.96
2022-08-02T17:15:57.042Z,34.80
2022-08-02T17:18:26.467Z,34.31
2022-08-02T17:20:54.388Z,34.39
2022-08-02T17:23:21.560Z,34.64
2022-08-02T17:25:52.731Z,34.51
2022-08-02T17:28:20.075Z,34.62
2022-08-02T17:30:47.294Z,35.16
2022-08-02T17:33:15.842Z,35.42
2022-08-02T17:35:52.904Z,35.28
2022-08-02T17:38:25.891Z,35.47
2022-08-02T17:40:54.968Z,35.45
2022-08-02T17:43:22.172Z,35.24
2022-08-02T17:46:00.316Z,35.48
2022-08-02T17:48:50.090Z,35.36
2022-08-02T17:52:15.453Z,35.16
2022-08-02T17:54:09.466Z,35.41
2022-08-02T17:56:37.205Z,35.87
2022-08-02T18:02:11.658Z,35.93
2022-08-02T18:04:39.141Z,36.41
2022-08-02T18:09:54.257Z,35.86
2022-08-02T18:12:21.661Z,35.61
2022-08-02T18:14:49.493Z,35.76
2022-08-02T18:17:16.886Z,35.96
2022-08-02T18:19:53.881Z,36.27
2022-08-02T18:22:22.709Z,36.21
2022-08-02T18:24:53.776Z,35.99
2022-08-02T18:27:21.050Z,35.96
2022-08-02T18:29:48.486Z,35.85
2022-08-02T18:33:54.330Z,35.92
2022-08-02T18:35:15.034Z,36.28
2022-08-02T18:37:43.812Z,35.91
2022-08-02T18:40:15.021Z,36.27
2022-08-02T18:42:42.234Z,35.92
2022-08-02T18:45:19.721Z,35.79
2022-08-02T18:47:50.774Z,35.97
2022-08-02T18:50:35.769Z,35.91
2022-08-02T18:53:03.209Z,35.96
2022-08-02T18:55:59.772Z,36.21
2022-08-02T18:58:20.396Z,36.17
2022-08-02T19:00:51.785Z,36.25
2022-08-02T19:03:19.513Z,36.23
2022-08-02T19:05:52.189Z,36.34
2022-08-02T19:08:25.417Z,36.03
2022-08-02T19:10:56.219Z,36.09
2022-08-02T19:13:24.067Z,35.94
2022-08-02T19:15:52.384Z,36.19
2022-08-02T19:18:19.635Z,36.59
2022-08-02T19:20:57.207Z,36.81
2022-08-02T19:23:29.771Z,36.83
2022-08-02T19:25:57.045Z,37.08
2022-08-02T19:28:26.127Z,36.94
2022-08-02T19:30:54.641Z,36.85
2022-08-02T19:33:25.250Z,37.01
2022-08-02T19:36:09.813Z,36.89
2022-08-02T19:38:43.838Z,37.01
2022-08-02T19:41:13.228Z,37.47
2022-08-02T19:44:25.146Z,37.83
2022-08-02T19:46:28.150Z,38.15
2022-08-02T19:48:55.369Z,38.43
2022-08-02T19:51:50.022Z,38.26
2022-08-02T19:54:11.059Z,38.27
2022-08-02T19:56:40.513Z,38.43
2022-08-02T19:59:13.812Z,38.76
2022-08-02T20:01:46.337Z,38.79
2022-08-02T20:04:18.825Z,39.05
2022-08-02T20:06:51.494Z,39.02
2022-08-02T20:09:21.489Z,39.10
2022-08-02T20:11:54.400Z,38.79
2022-08-02T20:14:26.643Z,38.95
2022-08-02T20:16:54.793Z,38.97
2022-08-02T20:19:21.978Z,39.24
2022-08-02T20:21:54.315Z,39.64
2022-08-02T20:24:26.716Z,39.38
2022-08-02T20:26:54.761Z,39.92
2022-08-02T20:29:45.070Z,40.26
2022-08-02T20:32:09.452Z,40.98
2022-08-02T20:34:37.170Z,41.17
2022-08-02T20:38:01.137Z,41.20
2022-08-02T20:39:52.595Z,41.38
2022-08-02T20:42:23.180Z,41.60
2022-08-02T20:44:54.635Z,41.82
2022-08-02T20:47:28.028Z,41.82
2022-08-02T20:50:30.288Z,41.63
2022-08-02T20:53:00.010Z,41.51
2022-08-02T20:55:27.980Z,41.71
2022-08-02T20:58:00.659Z,41.46
2022-08-02T21:00:28.997Z,41.46
2022-08-02T21:02:56.177Z,41.62
2022-08-02T21:05:26.690Z,41.68
2022-08-02T21:08:13.968Z,41.66
2022-08-02T21:10:43.616Z,42.27
2022-08-02T21:13:18.573Z,42.42
2022-08-02T21:16:22.526Z,42.64
2022-08-02T21:18:55.779Z,43.12
2022-08-02T21:21:28.060Z,42.98
2022-08-02T21:23:55.307Z,43.42
2022-08-02T21:26:28.216Z,43.52
2022-08-02T21:28:58.400Z,43.41
2022-08-02T21:31:29.951Z,43.55
2022-08-02T21:33:59.451Z,44.00
2022-08-02T21:36:31.173Z,43.96
2022-08-02T21:39:00.035Z,44.51
2022-08-02T21:41:39.584Z,45.44
2022-08-02T21:44:17.951Z,46.17
2022-08-02T21:46:45.988Z,47.51
2022-08-02T21:49:17.003Z,48.16
2022-08-02T21:51:49.762Z,48.51
2022-08-02T21:54:20.234Z,49.21
2022-08-02T21:56:49.831Z,49.34
2022-08-02T21:59:17.486Z,49.40
2022-08-02T22:01:53.024Z,49.96
2022-08-02T22:04:21.563Z,49.83
2022-08-02T22:06:49.332Z,49.88
2022-08-02T22:09:43.452Z,49.74
2022-08-02T22:12:09.854Z,50.08
2022-08-02T22:14:39.659Z,50.26
2022-08-02T22:17:08.866Z,50.15
2022-08-02T22:19:54.051Z,50.46
2022-08-02T22:22:28.217Z,50.44
2022-08-02T22:24:56.552Z,50.10
2022-08-02T22:28:13.267Z,50.65
2022-08-02T22:30:11.867Z,50.57
2022-08-02T22:32:57.967Z,51.37
2022-08-02T22:35:25.249Z,50.84
2022-08-02T22:38:17.389Z,50.75
2022-08-02T22:40:40.265Z,50.88
2022-08-02T22:43:07.448Z,50.77
2022-08-02T22:45:39.563Z,50.68
2022-08-02T22:48:07.018Z,50.71
2022-08-02T22:50:34.568Z,51.04
2022-08-02T22:53:03.025Z,51.37
2022-08-02T22:55:49.782Z,51.57
2022-08-02T22:58:16.925Z,51.09
2022-08-02T22:58:43.325Z,35.57
2022-08-02T22:58:49.180Z,36.07
2022-08-02T23:00:46.820Z,51.06
2022-08-02T23:03:14.009Z,51.21
2022-08-02T23:05:41.504Z,52.08
2022-08-02T23:08:08.768Z,52.29
2022-08-02T23:10:35.948Z,53.10
2022-08-02T23:13:03.195Z,52.74
2022-08-02T23:15:50.343Z,53.17
2022-08-02T23:18:36.243Z,53.27
2022-08-02T23:21:03.594Z,53.62
2022-08-02T23:23:30.733Z,54.01
2022-08-02T23:25:57.894Z,53.68
2022-08-02T23:28:25.081Z,53.67
2022-08-02T23:30:52.291Z,53.81
2022-08-02T23:33:19.515Z,53.87
2022-08-02T23:35:46.691Z,53.91
2022-08-02T23:38:13.879Z,53.73
2022-08-02T23:40:41.381Z,54.61
2022-08-02T23:43:13.352Z,54.05
2022-08-02T23:45:43.095Z,54.42
2022-08-02T23:48:10.276Z,53.71
2022-08-02T23:50:37.482Z,54.38
2022-08-02T23:53:04.684Z,54.21
2022-08-02T23:55:31.890Z,54.36
2022-08-02T23:57:59.011Z,54.45
